sensor_id;sensor_type;location;lat;lon;timestamp;P1;durP1;ratioP1;P2;durP2;ratioP2
16828;SDS011;8531;48.078;11.968;2023-06-22T00:00:52;4.05;;;3.17;;
16828;SDS011;8531;48.078;11.968;2023-06-22T00:03:18;6.00;;;4.13;;
16828;SDS011;8531;48.078;11.968;2023-06-22T00:05:45;6.80;;;3.65;;
16828;SDS011;8531;48.078;11.968;2023-06-22T00:08:12;5.60;;;3.55;;
16828;SDS011;8531;48.078;11.968;2023-06-22T00:10:38;5.82;;;3.67;;
16828;SDS011;8531;48.078;11.968;2023-06-22T00:13:05;7.90;;;3.83;;
16828;SDS011;8531;48.078;11.968;2023-06-22T00:15:32;7.05;;;3.70;;
16828;SDS011;8531;48.078;11.968;2023-06-22T00:17:58;8.63;;;4.22;;
16828;SDS011;8531;48.078;11.968;2023-06-22T00:20:24;8.88;;;4.05;;
16828;SDS011;8531;48.078;11.968;2023-06-22T00:22:53;7.30;;;3.80;;
16828;SDS011;8531;48.078;11.968;2023-06-22T00:25:22;6.03;;;3.67;;
16828;SDS011;8531;48.078;11.968;2023-06-22T00:27:48;4.75;;;3.33;;
16828;SDS011;8531;48.078;11.968;2023-06-22T00:30:18;5.10;;;3.33;;
16828;SDS011;8531;48.078;11.968;2023-06-22T00:32:44;4.78;;;3.08;;
16828;SDS011;8531;48.078;11.968;2023-06-22T00:37:37;6.82;;;3.45;;
16828;SDS011;8531;48.078;11.968;2023-06-22T00:40:06;6.47;;;3.80;;
16828;SDS011;8531;48.078;11.968;2023-06-22T00:42:34;5.13;;;3.22;;
16828;SDS011;8531;48.078;11.968;2023-06-22T00:45:00;6.22;;;4.00;;
16828;SDS011;8531;48.078;11.968;2023-06-22T00:47:25;3.95;;;3.03;;
16828;SDS011;8531;48.078;11.968;2023-06-22T00:49:52;7.38;;;3.70;;
16828;SDS011;8531;48.078;11.968;2023-06-22T00:52:19;5.95;;;3.78;;
16828;SDS011;8531;48.078;11.968;2023-06-22T00:54:50;5.47;;;3.47;;
16828;SDS011;8531;48.078;11.968;2023-06-22T00:57:17;7.18;;;4.07;;
16828;SDS011;8531;48.078;11.968;2023-06-22T00:59:44;6.28;;;3.92;;
16828;SDS011;8531;48.078;11.968;2023-06-22T01:02:10;6.45;;;3.72;;
16828;SDS011;8531;48.078;11.968;2023-06-22T01:04:37;5.03;;;3.85;;
16828;SDS011;8531;48.078;11.968;2023-06-22T01:12:45;7.60;;;3.97;;
16828;SDS011;8531;48.078;11.968;2023-06-22T01:15:17;8.20;;;4.07;;
16828;SDS011;8531;48.078;11.968;2023-06-22T01:17:58;6.07;;;4.05;;
16828;SDS011;8531;48.078;11.968;2023-06-22T01:20:26;6.72;;;4.38;;
16828;SDS011;8531;48.078;11.968;2023-06-22T01:23:46;5.40;;;3.55;;
16828;SDS011;8531;48.078;11.968;2023-06-22T01:26:06;5.57;;;3.40;;
16828;SDS011;8531;48.078;11.968;2023-06-22T01:28:46;5.90;;;3.92;;
16828;SDS011;8531;48.078;11.968;2023-06-22T01:31:13;7.65;;;3.85;;
16828;SDS011;8531;48.078;11.968;2023-06-22T01:33:43;6.93;;;4.18;;
16828;SDS011;8531;48.078;11.968;2023-06-22T01:36:13;6.43;;;4.95;;
16828;SDS011;8531;48.078;11.968;2023-06-22T01:38:41;7.57;;;3.90;;
16828;SDS011;8531;48.078;11.968;2023-06-22T01:41:08;6.63;;;4.50;;
16828;SDS011;8531;48.078;11.968;2023-06-22T01:43:34;7.28;;;4.78;;
16828;SDS011;8531;48.078;11.968;2023-06-22T01:46:01;6.70;;;4.38;;
16828;SDS011;8531;48.078;11.968;2023-06-22T01:48:27;8.98;;;5.00;;
16828;SDS011;8531;48.078;11.968;2023-06-22T01:50:54;6.05;;;4.38;;
16828;SDS011;8531;48.078;11.968;2023-06-22T01:53:23;6.95;;;5.10;;
16828;SDS011;8531;48.078;11.968;2023-06-22T01:55:49;7.82;;;4.45;;
16828;SDS011;8531;48.078;11.968;2023-06-22T01:58:14;7.72;;;4.53;;
16828;SDS011;8531;48.078;11.968;2023-06-22T02:00:42;9.70;;;5.57;;
16828;SDS011;8531;48.078;11.968;2023-06-22T02:03:14;6.88;;;5.00;;
16828;SDS011;8531;48.078;11.968;2023-06-22T02:05:55;10.95;;;5.45;;
16828;SDS011;8531;48.078;11.968;2023-06-22T02:08:28;10.70;;;5.55;;
16828;SDS011;8531;48.078;11.968;2023-06-22T02:11:03;10.50;;;5.30;;
16828;SDS011;8531;48.078;11.968;2023-06-22T02:13:31;11.07;;;5.55;;
16828;SDS011;8531;48.078;11.968;2023-06-22T02:15:57;8.10;;;4.82;;
16828;SDS011;8531;48.078;11.968;2023-06-22T02:18:24;8.85;;;5.40;;
16828;SDS011;8531;48.078;11.968;2023-06-22T02:20:50;9.65;;;5.43;;
16828;SDS011;8531;48.078;11.968;2023-06-22T02:23:16;8.43;;;5.55;;
16828;SDS011;8531;48.078;11.968;2023-06-22T02:25:41;7.95;;;5.10;;
16828;SDS011;8531;48.078;11.968;2023-06-22T02:28:09;9.38;;;5.47;;
16828;SDS011;8531;48.078;11.968;2023-06-22T02:30:35;8.88;;;5.65;;
16828;SDS011;8531;48.078;11.968;2023-06-22T02:33:00;8.20;;;6.20;;
16828;SDS011;8531;48.078;11.968;2023-06-22T02:35:27;10.48;;;5.93;;
16828;SDS011;8531;48.078;11.968;2023-06-22T02:37:56;8.73;;;5.88;;
16828;SDS011;8531;48.078;11.968;2023-06-22T02:40:25;6.80;;;4.80;;
16828;SDS011;8531;48.078;11.968;2023-06-22T02:42:51;6.40;;;5.35;;
16828;SDS011;8531;48.078;11.968;2023-06-22T02:45:17;8.15;;;5.65;;
16828;SDS011;8531;48.078;11.968;2023-06-22T02:47:43;12.30;;;6.13;;
16828;SDS011;8531;48.078;11.968;2023-06-22T02:50:09;11.30;;;6.00;;
16828;SDS011;8531;48.078;11.968;2023-06-22T02:52:35;8.20;;;6.07;;
16828;SDS011;8531;48.078;11.968;2023-06-22T02:55:01;10.75;;;6.38;;
16828;SDS011;8531;48.078;11.968;2023-06-22T02:57:26;11.00;;;5.90;;
16828;SDS011;8531;48.078;11.968;2023-06-22T02:59:52;12.20;;;6.95;;
16828;SDS011;8531;48.078;11.968;2023-06-22T03:02:17;9.48;;;6.32;;
16828;SDS011;8531;48.078;11.968;2023-06-22T03:04:46;11.98;;;6.97;;
16828;SDS011;8531;48.078;11.968;2023-06-22T03:07:14;12.57;;;6.75;;
16828;SDS011;8531;48.078;11.968;2023-06-22T03:09:40;10.77;;;7.35;;
16828;SDS011;8531;48.078;11.968;2023-06-22T03:12:08;10.23;;;6.20;;
16828;SDS011;8531;48.078;11.968;2023-06-22T03:14:34;10.32;;;6.45;;
16828;SDS011;8531;48.078;11.968;2023-06-22T03:16:59;11.23;;;6.82;;
16828;SDS011;8531;48.078;11.968;2023-06-22T03:19:28;12.43;;;6.95;;
16828;SDS011;8531;48.078;11.968;2023-06-22T03:21:56;11.70;;;6.60;;
16828;SDS011;8531;48.078;11.968;2023-06-22T03:24:23;14.95;;;8.98;;
16828;SDS011;8531;48.078;11.968;2023-06-22T03:26:48;9.77;;;6.82;;
16828;SDS011;8531;48.078;11.968;2023-06-22T03:29:14;12.55;;;6.07;;
16828;SDS011;8531;48.078;11.968;2023-06-22T03:31:40;9.95;;;6.03;;
16828;SDS011;8531;48.078;11.968;2023-06-22T03:34:06;13.02;;;8.75;;
16828;SDS011;8531;48.078;11.968;2023-06-22T03:36:32;9.35;;;6.03;;
16828;SDS011;8531;48.078;11.968;2023-06-22T03:38:57;10.27;;;6.28;;
16828;SDS011;8531;48.078;11.968;2023-06-22T03:41:23;12.57;;;5.72;;
16828;SDS011;8531;48.078;11.968;2023-06-22T03:43:48;7.00;;;5.50;;
16828;SDS011;8531;48.078;11.968;2023-06-22T03:46:14;12.77;;;5.88;;
16828;SDS011;8531;48.078;11.968;2023-06-22T03:48:40;13.35;;;5.75;;
16828;SDS011;8531;48.078;11.968;2023-06-22T03:51:06;13.80;;;6.85;;
16828;SDS011;8531;48.078;11.968;2023-06-22T03:53:31;9.95;;;5.20;;
16828;SDS011;8531;48.078;11.968;2023-06-22T03:55:57;17.88;;;5.35;;
16828;SDS011;8531;48.078;11.968;2023-06-22T03:58:22;10.18;;;5.65;;
16828;SDS011;8531;48.078;11.968;2023-06-22T04:00:49;6.28;;;5.18;;
16828;SDS011;8531;48.078;11.968;2023-06-22T04:03:16;9.70;;;5.57;;
16828;SDS011;8531;48.078;11.968;2023-06-22T04:05:45;8.85;;;5.25;;
16828;SDS011;8531;48.078;11.968;2023-06-22T04:08:12;13.05;;;5.97;;
16828;SDS011;8531;48.078;11.968;2023-06-22T04:10:39;9.40;;;4.95;;
16828;SDS011;8531;48.078;11.968;2023-06-22T04:13:04;10.73;;;5.10;;
16828;SDS011;8531;48.078;11.968;2023-06-22T04:15:30;7.65;;;4.75;;
16828;SDS011;8531;48.078;11.968;2023-06-22T04:17:56;7.85;;;5.30;;
16828;SDS011;8531;48.078;11.968;2023-06-22T04:20:22;7.00;;;4.75;;
16828;SDS011;8531;48.078;11.968;2023-06-22T04:22:50;8.27;;;5.20;;
16828;SDS011;8531;48.078;11.968;2023-06-22T04:25:17;8.70;;;5.38;;
16828;SDS011;8531;48.078;11.968;2023-06-22T04:27:42;9.52;;;4.90;;
16828;SDS011;8531;48.078;11.968;2023-06-22T04:30:08;8.32;;;5.15;;
16828;SDS011;8531;48.078;11.968;2023-06-22T04:32:34;8.23;;;4.80;;
16828;SDS011;8531;48.078;11.968;2023-06-22T04:35:04;9.98;;;5.00;;
16828;SDS011;8531;48.078;11.968;2023-06-22T04:37:31;9.10;;;4.75;;
16828;SDS011;8531;48.078;11.968;2023-06-22T04:39:57;7.05;;;4.70;;
16828;SDS011;8531;48.078;11.968;2023-06-22T04:42:23;9.88;;;5.82;;
16828;SDS011;8531;48.078;11.968;2023-06-22T04:44:50;8.20;;;4.88;;
16828;SDS011;8531;48.078;11.968;2023-06-22T04:47:16;6.63;;;4.47;;
16828;SDS011;8531;48.078;11.968;2023-06-22T04:49:42;8.00;;;4.93;;
16828;SDS011;8531;48.078;11.968;2023-06-22T04:52:09;11.10;;;5.88;;
16828;SDS011;8531;48.078;11.968;2023-06-22T04:54:37;8.88;;;5.50;;
16828;SDS011;8531;48.078;11.968;2023-06-22T04:57:06;7.60;;;5.45;;
16828;SDS011;8531;48.078;11.968;2023-06-22T04:59:35;6.80;;;5.13;;
16828;SDS011;8531;48.078;11.968;2023-06-22T05:02:04;12.80;;;5.47;;
16828;SDS011;8531;48.078;11.968;2023-06-22T05:04:31;7.85;;;5.20;;
16828;SDS011;8531;48.078;11.968;2023-06-22T05:06:57;7.68;;;5.00;;
16828;SDS011;8531;48.078;11.968;2023-06-22T05:09:24;8.77;;;4.93;;
16828;SDS011;8531;48.078;11.968;2023-06-22T05:11:50;10.18;;;5.95;;
16828;SDS011;8531;48.078;11.968;2023-06-22T05:14:16;8.20;;;5.40;;
16828;SDS011;8531;48.078;11.968;2023-06-22T05:16:41;10.52;;;6.07;;
16828;SDS011;8531;48.078;11.968;2023-06-22T05:19:08;10.48;;;6.07;;
16828;SDS011;8531;48.078;11.968;2023-06-22T05:21:34;13.55;;;5.75;;
16828;SDS011;8531;48.078;11.968;2023-06-22T05:24:00;7.35;;;5.25;;
16828;SDS011;8531;48.078;11.968;2023-06-22T05:26:27;8.85;;;5.20;;
16828;SDS011;8531;48.078;11.968;2023-06-22T05:28:53;8.93;;;5.60;;
16828;SDS011;8531;48.078;11.968;2023-06-22T05:31:19;9.60;;;5.78;;
16828;SDS011;8531;48.078;11.968;2023-06-22T05:33:46;9.10;;;5.38;;
16828;SDS011;8531;48.078;11.968;2023-06-22T05:36:13;12.88;;;5.55;;
16828;SDS011;8531;48.078;11.968;2023-06-22T05:38:39;9.23;;;5.60;;
16828;SDS011;8531;48.078;11.968;2023-06-22T05:41:05;11.10;;;5.05;;
16828;SDS011;8531;48.078;11.968;2023-06-22T05:43:31;7.95;;;5.25;;
16828;SDS011;8531;48.078;11.968;2023-06-22T05:45:57;13.63;;;5.50;;
16828;SDS011;8531;48.078;11.968;2023-06-22T05:48:23;13.00;;;5.22;;
16828;SDS011;8531;48.078;11.968;2023-06-22T05:50:49;9.50;;;5.57;;
16828;SDS011;8531;48.078;11.968;2023-06-22T05:53:15;9.60;;;5.55;;
16828;SDS011;8531;48.078;11.968;2023-06-22T05:55:40;11.88;;;5.18;;
16828;SDS011;8531;48.078;11.968;2023-06-22T05:58:07;11.23;;;5.57;;
16828;SDS011;8531;48.078;11.968;2023-06-22T06:00:33;7.60;;;5.45;;
16828;SDS011;8531;48.078;11.968;2023-06-22T06:02:59;13.48;;;5.30;;
16828;SDS011;8531;48.078;11.968;2023-06-22T06:05:32;7.13;;;5.25;;
16828;SDS011;8531;48.078;11.968;2023-06-22T06:07:59;9.93;;;5.47;;
16828;SDS011;8531;48.078;11.968;2023-06-22T06:10:25;10.93;;;5.82;;
16828;SDS011;8531;48.078;11.968;2023-06-22T06:12:51;10.07;;;5.30;;
16828;SDS011;8531;48.078;11.968;2023-06-22T06:15:17;9.07;;;5.35;;
16828;SDS011;8531;48.078;11.968;2023-06-22T06:17:49;11.25;;;5.35;;
16828;SDS011;8531;48.078;11.968;2023-06-22T06:20:20;13.10;;;5.78;;
16828;SDS011;8531;48.078;11.968;2023-06-22T06:22:47;11.48;;;5.55;;
16828;SDS011;8531;48.078;11.968;2023-06-22T06:25:13;8.98;;;5.88;;
16828;SDS011;8531;48.078;11.968;2023-06-22T06:27:42;9.48;;;5.57;;
16828;SDS011;8531;48.078;11.968;2023-06-22T06:30:09;10.48;;;5.25;;
16828;SDS011;8531;48.078;11.968;2023-06-22T06:32:36;10.70;;;5.43;;
16828;SDS011;8531;48.078;11.968;2023-06-22T06:35:01;10.13;;;4.95;;
16828;SDS011;8531;48.078;11.968;2023-06-22T06:37:27;10.10;;;5.13;;
16828;SDS011;8531;48.078;11.968;2023-06-22T06:39:53;9.40;;;5.30;;
16828;SDS011;8531;48.078;11.968;2023-06-22T06:42:18;8.25;;;5.63;;
16828;SDS011;8531;48.078;11.968;2023-06-22T06:44:45;11.77;;;5.28;;
16828;SDS011;8531;48.078;11.968;2023-06-22T06:47:10;9.63;;;5.13;;
16828;SDS011;8531;48.078;11.968;2023-06-22T06:49:36;12.00;;;5.38;;
16828;SDS011;8531;48.078;11.968;2023-06-22T06:52:02;8.25;;;5.20;;
16828;SDS011;8531;48.078;11.968;2023-06-22T06:54:27;10.70;;;5.95;;
16828;SDS011;8531;48.078;11.968;2023-06-22T06:56:53;13.80;;;5.80;;
16828;SDS011;8531;48.078;11.968;2023-06-22T06:59:19;8.57;;;5.22;;
16828;SDS011;8531;48.078;11.968;2023-06-22T07:01:44;7.13;;;5.10;;
16828;SDS011;8531;48.078;11.968;2023-06-22T07:04:10;11.50;;;5.68;;
16828;SDS011;8531;48.078;11.968;2023-06-22T07:06:36;10.20;;;5.82;;
16828;SDS011;8531;48.078;11.968;2023-06-22T07:09:02;13.07;;;5.95;;
16828;SDS011;8531;48.078;11.968;2023-06-22T07:11:28;9.50;;;5.90;;
16828;SDS011;8531;48.078;11.968;2023-06-22T07:13:54;10.15;;;5.28;;
16828;SDS011;8531;48.078;11.968;2023-06-22T07:16:19;11.63;;;5.97;;
16828;SDS011;8531;48.078;11.968;2023-06-22T07:18:46;7.50;;;5.13;;
16828;SDS011;8531;48.078;11.968;2023-06-22T07:21:11;8.45;;;5.40;;
16828;SDS011;8531;48.078;11.968;2023-06-22T07:23:37;8.40;;;5.15;;
16828;SDS011;8531;48.078;11.968;2023-06-22T07:26:03;10.13;;;4.90;;
16828;SDS011;8531;48.078;11.968;2023-06-22T07:28:31;7.88;;;4.78;;
16828;SDS011;8531;48.078;11.968;2023-06-22T07:31:02;10.25;;;5.40;;
16828;SDS011;8531;48.078;11.968;2023-06-22T07:33:29;10.30;;;5.10;;
16828;SDS011;8531;48.078;11.968;2023-06-22T07:35:54;10.07;;;5.45;;
16828;SDS011;8531;48.078;11.968;2023-06-22T07:38:20;14.73;;;5.22;;
16828;SDS011;8531;48.078;11.968;2023-06-22T07:40:46;9.90;;;5.57;;
16828;SDS011;8531;48.078;11.968;2023-06-22T07:43:12;10.48;;;5.30;;
16828;SDS011;8531;48.078;11.968;2023-06-22T07:45:38;13.05;;;6.38;;
16828;SDS011;8531;48.078;11.968;2023-06-22T07:48:06;10.02;;;5.80;;
16828;SDS011;8531;48.078;11.968;2023-06-22T07:50:32;10.43;;;5.57;;
16828;SDS011;8531;48.078;11.968;2023-06-22T07:52:58;7.88;;;5.00;;
16828;SDS011;8531;48.078;11.968;2023-06-22T07:55:23;11.27;;;5.40;;
16828;SDS011;8531;48.078;11.968;2023-06-22T07:57:49;13.80;;;6.07;;
16828;SDS011;8531;48.078;11.968;2023-06-22T08:00:17;11.63;;;5.40;;
16828;SDS011;8531;48.078;11.968;2023-06-22T08:02:44;8.05;;;5.00;;
16828;SDS011;8531;48.078;11.968;2023-06-22T08:05:11;9.35;;;5.13;;
16828;SDS011;8531;48.078;11.968;2023-06-22T08:07:39;9.77;;;5.43;;
16828;SDS011;8531;48.078;11.968;2023-06-22T08:10:10;8.75;;;5.47;;
16828;SDS011;8531;48.078;11.968;2023-06-22T08:12:36;11.45;;;5.03;;
16828;SDS011;8531;48.078;11.968;2023-06-22T08:15:02;8.32;;;5.95;;
16828;SDS011;8531;48.078;11.968;2023-06-22T08:17:29;10.68;;;5.30;;
16828;SDS011;8531;48.078;11.968;2023-06-22T08:19:56;9.82;;;5.18;;
16828;SDS011;8531;48.078;11.968;2023-06-22T08:22:21;15.32;;;5.38;;
16828;SDS011;8531;48.078;11.968;2023-06-22T08:24:47;14.85;;;5.47;;
16828;SDS011;8531;48.078;11.968;2023-06-22T08:27:13;9.23;;;5.13;;
16828;SDS011;8531;48.078;11.968;2023-06-22T08:29:40;11.55;;;5.55;;
16828;SDS011;8531;48.078;11.968;2023-06-22T08:32:10;8.23;;;5.65;;
16828;SDS011;8531;48.078;11.968;2023-06-22T08:34:36;10.05;;;5.75;;
16828;SDS011;8531;48.078;11.968;2023-06-22T08:37:07;11.07;;;6.03;;
16828;SDS011;8531;48.078;11.968;2023-06-22T08:39:33;8.10;;;5.13;;
16828;SDS011;8531;48.078;11.968;2023-06-22T08:41:59;7.55;;;4.72;;
16828;SDS011;8531;48.078;11.968;2023-06-22T08:44:25;7.68;;;5.47;;
16828;SDS011;8531;48.078;11.968;2023-06-22T08:46:50;11.63;;;6.22;;
16828;SDS011;8531;48.078;11.968;2023-06-22T08:49:16;8.55;;;5.35;;
16828;SDS011;8531;48.078;11.968;2023-06-22T08:51:42;10.40;;;5.30;;
16828;SDS011;8531;48.078;11.968;2023-06-22T08:54:09;9.32;;;5.22;;
16828;SDS011;8531;48.078;11.968;2023-06-22T08:56:35;9.55;;;5.13;;
16828;SDS011;8531;48.078;11.968;2023-06-22T08:59:01;11.15;;;6.20;;
16828;SDS011;8531;48.078;11.968;2023-06-22T09:01:27;8.07;;;5.63;;
16828;SDS011;8531;48.078;11.968;2023-06-22T09:03:52;9.05;;;4.60;;
16828;SDS011;8531;48.078;11.968;2023-06-22T09:06:22;11.93;;;5.00;;
16828;SDS011;8531;48.078;11.968;2023-06-22T09:08:49;9.63;;;5.35;;
16828;SDS011;8531;48.078;11.968;2023-06-22T09:11:15;11.85;;;5.65;;
16828;SDS011;8531;48.078;11.968;2023-06-22T09:13:41;8.43;;;5.03;;
16828;SDS011;8531;48.078;11.968;2023-06-22T09:16:07;10.25;;;6.50;;
16828;SDS011;8531;48.078;11.968;2023-06-22T09:18:36;10.15;;;5.75;;
16828;SDS011;8531;48.078;11.968;2023-06-22T09:21:02;10.60;;;5.78;;
16828;SDS011;8531;48.078;11.968;2023-06-22T09:23:27;11.52;;;5.38;;
16828;SDS011;8531;48.078;11.968;2023-06-22T09:25:53;9.88;;;5.47;;
16828;SDS011;8531;48.078;11.968;2023-06-22T09:28:19;7.55;;;5.70;;
16828;SDS011;8531;48.078;11.968;2023-06-22T09:30:45;12.90;;;5.88;;
16828;SDS011;8531;48.078;11.968;2023-06-22T09:33:10;12.35;;;5.85;;
16828;SDS011;8531;48.078;11.968;2023-06-22T09:35:36;8.82;;;4.93;;
16828;SDS011;8531;48.078;11.968;2023-06-22T09:38:02;10.90;;;5.50;;
16828;SDS011;8531;48.078;11.968;2023-06-22T09:40:27;9.98;;;5.75;;
16828;SDS011;8531;48.078;11.968;2023-06-22T09:42:53;9.90;;;5.55;;
16828;SDS011;8531;48.078;11.968;2023-06-22T09:45:19;8.57;;;6.05;;
16828;SDS011;8531;48.078;11.968;2023-06-22T09:47:44;11.25;;;5.20;;
16828;SDS011;8531;48.078;11.968;2023-06-22T09:50:10;8.88;;;5.65;;
16828;SDS011;8531;48.078;11.968;2023-06-22T09:52:37;13.07;;;5.93;;
16828;SDS011;8531;48.078;11.968;2023-06-22T09:55:03;12.30;;;5.97;;
16828;SDS011;8531;48.078;11.968;2023-06-22T09:57:29;10.48;;;5.70;;
16828;SDS011;8531;48.078;11.968;2023-06-22T09:59:55;10.75;;;5.97;;
16828;SDS011;8531;48.078;11.968;2023-06-22T10:02:21;8.43;;;5.30;;
16828;SDS011;8531;48.078;11.968;2023-06-22T10:04:47;14.38;;;5.75;;
16828;SDS011;8531;48.078;11.968;2023-06-22T10:07:13;12.10;;;5.32;;
16828;SDS011;8531;48.078;11.968;2023-06-22T10:09:39;14.75;;;6.20;;
16828;SDS011;8531;48.078;11.968;2023-06-22T10:12:04;14.07;;;5.75;;
16828;SDS011;8531;48.078;11.968;2023-06-22T10:14:30;12.95;;;6.18;;
16828;SDS011;8531;48.078;11.968;2023-06-22T10:16:56;12.20;;;5.63;;
16828;SDS011;8531;48.078;11.968;2023-06-22T10:19:22;14.45;;;5.53;;
16828;SDS011;8531;48.078;11.968;2023-06-22T10:21:48;10.35;;;5.10;;
16828;SDS011;8531;48.078;11.968;2023-06-22T10:24:13;12.45;;;5.97;;
16828;SDS011;8531;48.078;11.968;2023-06-22T10:26:40;18.58;;;6.72;;
16828;SDS011;8531;48.078;11.968;2023-06-22T10:29:06;11.40;;;5.78;;
16828;SDS011;8531;48.078;11.968;2023-06-22T10:31:32;11.40;;;5.70;;
16828;SDS011;8531;48.078;11.968;2023-06-22T10:33:57;11.93;;;6.30;;
16828;SDS011;8531;48.078;11.968;2023-06-22T10:36:23;15.13;;;5.63;;
16828;SDS011;8531;48.078;11.968;2023-06-22T10:38:49;12.90;;;5.55;;
16828;SDS011;8531;48.078;11.968;2023-06-22T10:41:14;11.52;;;5.68;;
16828;SDS011;8531;48.078;11.968;2023-06-22T10:43:41;9.75;;;5.88;;
16828;SDS011;8531;48.078;11.968;2023-06-22T10:46:06;14.32;;;5.20;;
16828;SDS011;8531;48.078;11.968;2023-06-22T10:48:32;11.40;;;5.65;;
16828;SDS011;8531;48.078;11.968;2023-06-22T10:50:59;13.55;;;5.75;;
16828;SDS011;8531;48.078;11.968;2023-06-22T10:53:24;11.50;;;5.22;;
16828;SDS011;8531;48.078;11.968;2023-06-22T10:55:50;11.93;;;5.60;;
16828;SDS011;8531;48.078;11.968;2023-06-22T10:58:20;14.65;;;6.20;;
16828;SDS011;8531;48.078;11.968;2023-06-22T11:00:46;15.73;;;6.38;;
16828;SDS011;8531;48.078;11.968;2023-06-22T11:03:12;11.85;;;5.30;;
16828;SDS011;8531;48.078;11.968;2023-06-22T11:05:39;11.25;;;6.35;;
16828;SDS011;8531;48.078;11.968;2023-06-22T11:08:05;10.93;;;5.93;;
16828;SDS011;8531;48.078;11.968;2023-06-22T11:10:31;13.55;;;6.15;;
16828;SDS011;8531;48.078;11.968;2023-06-22T11:12:56;17.42;;;6.22;;
16828;SDS011;8531;48.078;11.968;2023-06-22T11:15:23;11.18;;;5.90;;
16828;SDS011;8531;48.078;11.968;2023-06-22T11:17:49;15.00;;;5.80;;
16828;SDS011;8531;48.078;11.968;2023-06-22T11:20:15;11.52;;;5.65;;
16828;SDS011;8531;48.078;11.968;2023-06-22T11:22:41;9.65;;;5.20;;
16828;SDS011;8531;48.078;11.968;2023-06-22T11:25:07;9.07;;;5.30;;
16828;SDS011;8531;48.078;11.968;2023-06-22T11:27:34;14.43;;;5.75;;
16828;SDS011;8531;48.078;11.968;2023-06-22T11:29:59;14.30;;;5.90;;
16828;SDS011;8531;48.078;11.968;2023-06-22T11:32:25;15.23;;;6.00;;
16828;SDS011;8531;48.078;11.968;2023-06-22T11:34:51;12.82;;;5.45;;
16828;SDS011;8531;48.078;11.968;2023-06-22T11:37:17;14.48;;;5.80;;
16828;SDS011;8531;48.078;11.968;2023-06-22T11:39:42;13.60;;;6.05;;
16828;SDS011;8531;48.078;11.968;2023-06-22T11:42:09;10.73;;;5.15;;
16828;SDS011;8531;48.078;11.968;2023-06-22T11:44:34;9.18;;;6.15;;
16828;SDS011;8531;48.078;11.968;2023-06-22T11:47:00;10.10;;;5.35;;
16828;SDS011;8531;48.078;11.968;2023-06-22T11:49:28;11.20;;;5.68;;
16828;SDS011;8531;48.078;11.968;2023-06-22T11:51:54;11.85;;;5.82;;
16828;SDS011;8531;48.078;11.968;2023-06-22T11:54:20;15.32;;;5.60;;
16828;SDS011;8531;48.078;11.968;2023-06-22T11:56:46;13.40;;;5.97;;
16828;SDS011;8531;48.078;11.968;2023-06-22T11:59:11;15.27;;;5.20;;
16828;SDS011;8531;48.078;11.968;2023-06-22T12:01:37;16.17;;;5.50;;
16828;SDS011;8531;48.078;11.968;2023-06-22T12:04:03;12.88;;;5.60;;
16828;SDS011;8531;48.078;11.968;2023-06-22T12:06:31;15.18;;;6.40;;
16828;SDS011;8531;48.078;11.968;2023-06-22T12:08:57;15.43;;;5.78;;
16828;SDS011;8531;48.078;11.968;2023-06-22T12:11:23;13.45;;;6.13;;
16828;SDS011;8531;48.078;11.968;2023-06-22T12:13:48;12.23;;;6.05;;
16828;SDS011;8531;48.078;11.968;2023-06-22T12:16:14;12.88;;;6.10;;
16828;SDS011;8531;48.078;11.968;2023-06-22T12:18:40;8.73;;;5.18;;
16828;SDS011;8531;48.078;11.968;2023-06-22T12:21:05;9.90;;;5.60;;
16828;SDS011;8531;48.078;11.968;2023-06-22T12:23:31;9.77;;;5.40;;
16828;SDS011;8531;48.078;11.968;2023-06-22T12:25:57;13.20;;;5.38;;
16828;SDS011;8531;48.078;11.968;2023-06-22T12:28:24;10.68;;;5.25;;
16828;SDS011;8531;48.078;11.968;2023-06-22T12:30:50;15.52;;;5.60;;
16828;SDS011;8531;48.078;11.968;2023-06-22T12:33:15;21.15;;;6.32;;
16828;SDS011;8531;48.078;11.968;2023-06-22T12:35:41;14.23;;;5.43;;
16828;SDS011;8531;48.078;11.968;2023-06-22T12:38:07;11.95;;;5.53;;
16828;SDS011;8531;48.078;11.968;2023-06-22T12:40:33;15.85;;;5.55;;
16828;SDS011;8531;48.078;11.968;2023-06-22T12:42:59;11.70;;;5.15;;
16828;SDS011;8531;48.078;11.968;2023-06-22T12:45:24;11.63;;;5.80;;
16828;SDS011;8531;48.078;11.968;2023-06-22T12:47:53;11.57;;;5.40;;
16828;SDS011;8531;48.078;11.968;2023-06-22T12:50:19;10.80;;;4.90;;
16828;SDS011;8531;48.078;11.968;2023-06-22T12:52:45;12.65;;;5.32;;
16828;SDS011;8531;48.078;11.968;2023-06-22T12:55:11;10.55;;;4.82;;
16828;SDS011;8531;48.078;11.968;2023-06-22T12:57:36;10.85;;;5.35;;
16828;SDS011;8531;48.078;11.968;2023-06-22T13:00:02;11.52;;;5.03;;
16828;SDS011;8531;48.078;11.968;2023-06-22T13:02:29;10.95;;;5.40;;
16828;SDS011;8531;48.078;11.968;2023-06-22T13:04:55;9.27;;;4.95;;
16828;SDS011;8531;48.078;11.968;2023-06-22T13:07:21;10.90;;;5.07;;
16828;SDS011;8531;48.078;11.968;2023-06-22T13:09:47;11.10;;;4.55;;
16828;SDS011;8531;48.078;11.968;2023-06-22T13:12:16;9.43;;;5.03;;
16828;SDS011;8531;48.078;11.968;2023-06-22T13:14:42;11.32;;;4.80;;
16828;SDS011;8531;48.078;11.968;2023-06-22T13:17:08;11.35;;;4.78;;
16828;SDS011;8531;48.078;11.968;2023-06-22T13:19:34;11.10;;;5.07;;
16828;SDS011;8531;48.078;11.968;2023-06-22T13:22:00;8.75;;;4.35;;
16828;SDS011;8531;48.078;11.968;2023-06-22T13:24:25;9.52;;;5.05;;
16828;SDS011;8531;48.078;11.968;2023-06-22T13:26:51;8.68;;;4.95;;
16828;SDS011;8531;48.078;11.968;2023-06-22T13:29:17;7.97;;;5.05;;
16828;SDS011;8531;48.078;11.968;2023-06-22T13:31:42;13.98;;;5.00;;
16828;SDS011;8531;48.078;11.968;2023-06-22T13:34:08;9.13;;;4.80;;
16828;SDS011;8531;48.078;11.968;2023-06-22T13:36:33;15.05;;;4.88;;
16828;SDS011;8531;48.078;11.968;2023-06-22T13:38:59;11.32;;;4.95;;
16828;SDS011;8531;48.078;11.968;2023-06-22T13:41:25;10.90;;;4.75;;
16828;SDS011;8531;48.078;11.968;2023-06-22T13:43:50;11.88;;;5.30;;
16828;SDS011;8531;48.078;11.968;2023-06-22T13:46:16;13.07;;;4.90;;
16828;SDS011;8531;48.078;11.968;2023-06-22T13:48:42;11.13;;;5.03;;
16828;SDS011;8531;48.078;11.968;2023-06-22T13:51:08;11.52;;;5.32;;
16828;SDS011;8531;48.078;11.968;2023-06-22T13:53:33;9.95;;;5.10;;
16828;SDS011;8531;48.078;11.968;2023-06-22T13:55:59;12.27;;;5.15;;
16828;SDS011;8531;48.078;11.968;2023-06-22T13:58:25;7.65;;;4.78;;
16828;SDS011;8531;48.078;11.968;2023-06-22T14:00:50;10.40;;;4.78;;
16828;SDS011;8531;48.078;11.968;2023-06-22T14:03:16;9.07;;;4.88;;
16828;SDS011;8531;48.078;11.968;2023-06-22T14:05:42;13.73;;;5.40;;
16828;SDS011;8531;48.078;11.968;2023-06-22T14:08:08;15.73;;;5.80;;
16828;SDS011;8531;48.078;11.968;2023-06-22T14:10:34;10.00;;;4.85;;
16828;SDS011;8531;48.078;11.968;2023-06-22T14:13:00;11.05;;;4.97;;
16828;SDS011;8531;48.078;11.968;2023-06-22T14:15:25;7.30;;;4.78;;
16828;SDS011;8531;48.078;11.968;2023-06-22T14:17:51;14.82;;;5.15;;
16828;SDS011;8531;48.078;11.968;2023-06-22T14:20:17;8.07;;;4.45;;
16828;SDS011;8531;48.078;11.968;2023-06-22T14:22:43;11.52;;;5.07;;
16828;SDS011;8531;48.078;11.968;2023-06-22T14:25:09;11.20;;;4.78;;
16828;SDS011;8531;48.078;11.968;2023-06-22T14:27:34;10.15;;;5.35;;
16828;SDS011;8531;48.078;11.968;2023-06-22T14:30:00;9.10;;;4.97;;
16828;SDS011;8531;48.078;11.968;2023-06-22T14:32:27;10.45;;;5.38;;
16828;SDS011;8531;48.078;11.968;2023-06-22T14:34:55;10.75;;;4.63;;
16828;SDS011;8531;48.078;11.968;2023-06-22T14:37:20;5.80;;;4.68;;
16828;SDS011;8531;48.078;11.968;2023-06-22T14:39:46;12.45;;;5.38;;
16828;SDS011;8531;48.078;11.968;2023-06-22T14:42:12;11.27;;;5.18;;
16828;SDS011;8531;48.078;11.968;2023-06-22T14:44:37;10.32;;;5.00;;